INDIA METEOROLOGICAL DEPARTMENT, R.M.C. NEW DELHI
Dated:22 - 5 - 2022
METARS OF ALTERNATE AIRPORTS
Delhi      
VIDP 220400Z 08007KT 3500 HZ FEW100 31/17 Q0997 NOSIG=
Lucknow    
VILK 220400Z 14005KT 4500 HZ SCT020 SCT025 BKN100 30/20 Q0997 NOSIG=
Jaipur     
VIJP 220400Z 28012KT 2500 DU NSC 34/23 Q0999 NOSIG=
Ahmedabad  
VAAH 220400Z 22008G18KT 4000 HZ SCT020 32/24 Q1001 NOSIG=
Udaipur    
VAUD 220400Z 22011KT 5000 HZ NSC 30/20 Q1002 NOSIG=
Mumbai     
VABB 220400Z 24011KT 4000 HZ FEW020 SCT025 31/26 Q1006 NOSIG=